»·PEaware :: ASA186 KFAT-KSNA

ASA186 :: KFAT-KSNA

FLIGHT INFORMATION

Flight Status: Arrived
Operator:
Alaska Airlines
More flights by this operator :: More flights under this callsign
Pilot: Ben L. (6391)
Aircraft: BOEING 737-800
(B738)
More flights by this aircraft type
Origin: KFAT Fresno Yosemite Intl
United States
Destination: KSNA John Wayne-Orange Co
United States
More flights between these airports :: More routes between these airports
Route: +LHS V459 SLI
File this flight plan on PilotEdge
Remarks:
Altitude:
(Current/Filed)
29,000ft
Speed:
(Current/Filed)
450kts
Departed: 12-Sep-19 01:01 PM
Arrived: 12-Sep-19 01:51 PM
Distance/Time
Traveled:
207nm/0:50
Distance/Time
To Go:
Arrived

Flight Plot

Page will automatically refresh every two minutes.

Flight plan parsing failed; only flown route is shown


Map Options




Map Legend


Flown Route
Filed Route
Departure Airport
Arrival Airport
Navaid (VOR, NDB)
Fix

Horizontal Profiles

Position Reports

Time Latitude Longitude Heading Altitude Ground
Speed
12-Sep-19 12:38 36.771389 -119.717759 305 335ft 0kts
12-Sep-19 12:39 36.771389 -119.717759 305 335ft 0kts
12-Sep-19 12:40 36.771389 -119.717759 305 335ft 0kts
12-Sep-19 12:41 36.771389 -119.717759 305 335ft 0kts
12-Sep-19 12:42 36.771389 -119.717759 305 335ft 0kts
12-Sep-19 12:43 36.771389 -119.717759 305 335ft 0kts
12-Sep-19 12:44 36.771389 -119.717759 305 335ft 0kts
12-Sep-19 12:45 36.771389 -119.717759 305 335ft 0kts
12-Sep-19 12:46 36.771389 -119.717759 305 335ft 0kts
12-Sep-19 12:47 36.771389 -119.717759 305 335ft 0kts
12-Sep-19 12:48 36.771389 -119.717759 305 335ft 0kts
12-Sep-19 12:49 36.771389 -119.717759 305 335ft 0kts
12-Sep-19 12:50 36.771389 -119.717759 305 335ft 0kts
12-Sep-19 12:51 36.771389 -119.717759 305 335ft 0kts
12-Sep-19 12:52 36.771385 -119.717752 305 335ft 1kts
12-Sep-19 12:53 36.770868 -119.717446 5 335ft 2kts
12-Sep-19 12:54 36.770472 -119.717673 37 335ft 0kts
12-Sep-19 12:55 36.770472 -119.717673 37 335ft 0kts
12-Sep-19 12:56 36.771693 -119.716578 36 335ft 9kts
12-Sep-19 12:57 36.769853 -119.711814 125 335ft 21kts
12-Sep-19 12:58 36.767602 -119.705663 90 335ft 15kts
12-Sep-19 12:59 36.769369 -119.704452 304 335ft 5kts
12-Sep-19 13:00 36.788584 -119.738988 303 959ft 194kts
12-Sep-19 13:01 36.825253 -119.805741 304 3396ft 264kts
12-Sep-19 13:02 36.841728 -119.890275 233 6821ft 277kts
12-Sep-19 13:03 36.772419 -119.896776 148 9938ft 291kts
12-Sep-19 13:04 36.696228 -119.842595 151 12527ft 332kts
12-Sep-19 13:05 36.612478 -119.788457 152 16039ft 346kts
12-Sep-19 13:06 36.525048 -119.732083 152 19302ft 362kts
12-Sep-19 13:07 36.433705 -119.673351 153 22265ft 379kts
12-Sep-19 13:08 36.337466 -119.611644 154 24943ft 396kts
12-Sep-19 13:09 36.237137 -119.547506 154 27362ft 413kts
12-Sep-19 13:10 36.132330 -119.480728 154 29094ft 439kts
12-Sep-19 13:11 36.021425 -119.410268 154 29068ft 446kts
12-Sep-19 13:12 35.914046 -119.342233 155 29051ft 446kts
12-Sep-19 13:13 35.803573 -119.272507 156 29082ft 447kts
12-Sep-19 13:14 35.686635 -119.240170 172 29080ft 442kts
12-Sep-19 13:15 35.566009 -119.221250 179 29083ft 441kts
12-Sep-19 13:16 35.443088 -119.214434 179 29086ft 441kts
12-Sep-19 13:17 35.320514 -119.207710 179 29090ft 441kts
12-Sep-19 13:18 35.197667 -119.200989 179 29090ft 441kts
12-Sep-19 13:19 35.074767 -119.194282 179 29089ft 441kts
12-Sep-19 13:20 34.952077 -119.187606 178 29089ft 441kts
12-Sep-19 13:21 34.836594 -119.181334 178 29087ft 443kts
12-Sep-19 13:22 34.716173 -119.159665 159 29069ft 443kts
12-Sep-19 13:23 34.605824 -119.092857 153 29054ft 442kts
12-Sep-19 13:24 34.497768 -119.023247 152 29053ft 438kts
12-Sep-19 13:25 34.392696 -118.954422 152 28649ft 442kts
12-Sep-19 13:26 34.283685 -118.881992 152 26140ft 449kts
12-Sep-19 13:27 34.169272 -118.821760 162 23542ft 450kts
12-Sep-19 13:28 34.051646 -118.775816 161 20875ft 424kts
12-Sep-19 13:29 33.944431 -118.734383 161 18411ft 386kts
12-Sep-19 13:30 33.849137 -118.697581 161 16212ft 378kts
12-Sep-19 13:31 33.752842 -118.660469 161 13958ft 350kts
12-Sep-19 13:32 33.662001 -118.628189 162 11867ft 339kts
12-Sep-19 13:33 33.581881 -118.571619 131 10464ft 321kts
12-Sep-19 13:34 33.534955 -118.489990 117 9332ft 283kts
12-Sep-19 13:35 33.519959 -118.401737 90 8043ft 272kts
12-Sep-19 13:36 33.524690 -118.312979 70 6991ft 266kts
12-Sep-19 13:37 33.551180 -118.229290 70 5812ft 269kts
12-Sep-19 13:38 33.583932 -118.148397 57 5023ft 267kts
12-Sep-19 13:39 33.625237 -118.074476 57 5018ft 265kts
12-Sep-19 13:40 33.666546 -118.000226 57 5018ft 267kts
12-Sep-19 13:41 33.715208 -117.934749 29 5035ft 251kts
12-Sep-19 13:42 33.772886 -117.897699 27 4682ft 226kts
12-Sep-19 13:43 33.828699 -117.862328 27 3874ft 225kts
12-Sep-19 13:44 33.873801 -117.815998 87 3076ft 224kts
12-Sep-19 13:45 33.834484 -117.765647 167 2870ft 206kts
12-Sep-19 13:46 33.789033 -117.795510 218 2363ft 184kts
12-Sep-19 13:47 33.746575 -117.824856 206 1320ft 157kts
12-Sep-19 13:48 33.708341 -117.848260 208 691ft 153kts
12-Sep-19 13:49 33.673461 -117.870239 208 64ft 95kts
12-Sep-19 13:50 33.667546 -117.872949 105 63ft 0kts
12-Sep-19 13:51 33.668508 -117.871551 40 63ft 22kts
12-Sep-19 13:52 33.674115 -117.866295 27 63ft 20kts
12-Sep-19 13:53 33.680118 -117.862583 67 63ft 6kts
12-Sep-19 13:54 33.680124 -117.861826 90 64ft 0kts

Navigation Log

Ident Type
Flight plan parsing failed, navigation log unavailable